Time;durP1;ratioP1;P1;durP2;ratioP2;P2;SDS_P1;SDS_P2;PMS_P1;PMS_P2;Temp;Humidity;BMP_temperature;BMP_pressure;BME280_temperature;BME280_humidity;BME280_pressure;Samples;Min_cycle;Max_cycle;Signal;HPM_P1;HPM_P2
2022/07/19 00:01:29;;;;;;;;;;;27.50;99.70;;;;;;5112913;28;19951;-70
2022/07/19 00:03:58;;;;;;;;;;;27.50;99.30;;;;;;5112721;28;19904;-70
2022/07/19 00:06:24;;;;;;;;;;;27.60;98.70;;;;;;5114471;28;19910;-70
2022/07/19 00:08:49;;;;;;;;;;;27.60;98.30;;;;;;5114112;28;20097;-70
2022/07/19 00:11:15;;;;;;;;;;;27.50;97.80;;;;;;5113903;28;20213;-70
2022/07/19 00:13:41;;;;;;;;;;;27.50;97.50;;;;;;5114185;28;19911;-70
2022/07/19 00:16:07;;;;;;;;;;;27.60;96.80;;;;;;5112166;28;19916;-70
2022/07/19 00:18:33;;;;;;;;;;;27.60;96.20;;;;;;5114264;28;19915;-70
2022/07/19 00:20:58;;;;;;;;;;;27.60;96.20;;;;;;5113891;28;19904;-70
2022/07/19 00:23:24;;;;;;;;;;;27.60;95.90;;;;;;5114107;28;19904;-70
2022/07/19 00:25:50;;;;;;;;;;;27.60;96.20;;;;;;5113824;28;19956;-70
2022/07/19 00:28:16;;;;;;;;;;;27.60;95.40;;;;;;5113833;28;19908;-70
2022/07/19 00:30:42;;;;;;;;;;;27.70;94.80;;;;;;5114083;28;19997;-70
2022/07/19 00:33:08;;;;;;;;;;;27.70;94.50;;;;;;5112231;28;19912;-70
2022/07/19 00:35:35;;;;;;;;;;;27.70;94.20;;;;;;5113525;28;19921;-70
2022/07/19 00:38:07;;;;;;;;;;;27.80;94.50;;;;;;5113905;28;20300;-70
2022/07/19 00:40:33;;;;;;;;;;;27.70;95.00;;;;;;5113928;28;19908;-70
2022/07/19 00:42:59;;;;;;;;;;;27.70;95.50;;;;;;5113548;27;20255;-70
2022/07/19 00:45:24;;;;;;;;;;;27.70;95.40;;;;;;5113396;28;19967;-70
2022/07/19 00:47:50;;;;;;;;;;;27.60;95.40;;;;;;5114147;28;20190;-70
2022/07/19 00:50:17;;;;;;;;;;;27.50;95.20;;;;;;5113484;28;19916;-70
2022/07/19 00:52:44;;;;;;;;;;;27.40;95.00;;;;;;5113236;28;20339;-70
2022/07/19 00:55:11;;;;;;;;;;;27.40;94.70;;;;;;5113547;28;19914;-70
2022/07/19 00:57:41;;;;;;;;;;;27.50;94.00;;;;;;5113244;28;20216;-69
2022/07/19 01:00:08;;;;;;;;;;;27.40;94.10;;;;;;5113104;28;19968;-70
2022/07/19 01:02:35;;;;;;;;;;;27.40;94.00;;;;;;5113118;28;20316;-70
2022/07/19 01:05:01;;;;;;;;;;;27.40;93.80;;;;;;5113139;28;19918;-70
2022/07/19 01:07:27;;;;;;;;;;;27.40;93.80;;;;;;5113054;28;19954;-70
2022/07/19 01:09:53;;;;;;;;;;;27.30;93.70;;;;;;5113387;28;19904;-70
2022/07/19 01:12:20;;;;;;;;;;;27.40;93.70;;;;;;5111452;28;19914;-70
2022/07/19 01:14:46;;;;;;;;;;;27.40;93.60;;;;;;5113196;28;20020;-70
2022/07/19 01:17:12;;;;;;;;;;;27.40;93.50;;;;;;5112785;28;20344;-70
2022/07/19 01:19:38;;;;;;;;;;;27.40;93.60;;;;;;5111260;28;20007;-70
2022/07/19 01:22:04;;;;;;;;;;;27.40;93.40;;;;;;5111672;28;19953;-70
2022/07/19 01:24:30;;;;;;;;;;;27.40;93.50;;;;;;5112919;28;20278;-71
2022/07/19 01:26:56;;;;;;;;;;;27.40;93.60;;;;;;5112880;28;19904;-70
2022/07/19 01:29:22;;;;;;;;;;;27.40;93.60;;;;;;5112536;28;19904;-70
2022/07/19 01:31:47;;;;;;;;;;;27.40;93.70;;;;;;5111001;28;20240;-70
2022/07/19 01:34:13;;;;;;;;;;;27.40;93.90;;;;;;5112677;28;19908;-70
2022/07/19 01:36:39;;;;;;;;;;;27.30;94.50;;;;;;5112428;28;19907;-70
2022/07/19 01:39:05;;;;;;;;;;;27.30;94.80;;;;;;5112480;28;19922;-70
2022/07/19 01:41:31;;;;;;;;;;;27.20;94.90;;;;;;5112420;28;19948;-70
2022/07/19 01:43:56;;;;;;;;;;;27.20;94.90;;;;;;5112776;28;19998;-71
2022/07/19 01:46:22;;;;;;;;;;;27.20;94.80;;;;;;5110802;28;19904;-70
2022/07/19 01:48:48;;;;;;;;;;;27.20;95.00;;;;;;5112586;28;20267;-70
2022/07/19 01:51:14;;;;;;;;;;;27.20;94.80;;;;;;5112987;28;19904;-70
2022/07/19 01:53:40;;;;;;;;;;;27.20;94.50;;;;;;5112222;28;20422;-70
2022/07/19 01:56:06;;;;;;;;;;;27.20;94.70;;;;;;5112085;28;19903;-70
2022/07/19 01:58:32;;;;;;;;;;;27.20;94.80;;;;;;5112536;28;19946;-70
2022/07/19 02:00:58;;;;;;;;;;;27.20;94.90;;;;;;5112163;28;19938;-70
2022/07/19 02:03:24;;;;;;;;;;;27.10;94.80;;;;;;5112297;28;20280;-70
2022/07/19 02:05:50;;;;;;;;;;;27.10;95.00;;;;;;5112141;27;19915;-70
2022/07/19 02:08:16;;;;;;;;;;;27.10;95.00;;;;;;5110498;28;20344;-70
2022/07/19 02:10:42;;;;;;;;;;;27.00;95.00;;;;;;5111894;28;19908;-71
2022/07/19 02:13:08;;;;;;;;;;;27.10;95.00;;;;;;5112382;28;20261;-71
2022/07/19 02:15:33;;;;;;;;;;;27.10;94.90;;;;;;5111703;28;19908;-70
2022/07/19 02:18:00;;;;;;;;;;;27.10;94.90;;;;;;5112069;28;19910;-72
2022/07/19 02:20:25;;;;;;;;;;;27.10;94.90;;;;;;5111098;28;19904;-70
2022/07/19 02:22:51;;;;;;;;;;;27.00;95.10;;;;;;5111365;28;20336;-70
2022/07/19 02:25:18;;;;;;;;;;;27.00;95.30;;;;;;5111807;28;20315;-71
2022/07/19 02:27:43;;;;;;;;;;;27.00;95.30;;;;;;5111886;28;20301;-71
2022/07/19 02:30:11;;;;;;;;;;;27.00;95.20;;;;;;5111856;28;19903;-71
2022/07/19 02:32:37;;;;;;;;;;;27.00;95.30;;;;;;5110688;28;19945;-71
2022/07/19 02:35:04;;;;;;;;;;;27.00;95.50;;;;;;5115787;28;20364;-71
2022/07/19 02:37:30;;;;;;;;;;;27.00;95.60;;;;;;5116074;28;19908;-71
2022/07/19 02:39:56;;;;;;;;;;;27.00;95.70;;;;;;5115908;28;19904;-71
2022/07/19 02:42:22;;;;;;;;;;;26.90;95.60;;;;;;5115780;28;19919;-71
2022/07/19 02:44:47;;;;;;;;;;;26.90;95.60;;;;;;5115601;28;20328;-71
2022/07/19 02:47:13;;;;;;;;;;;26.90;95.50;;;;;;5115687;28;19938;-71
2022/07/19 02:49:39;;;;;;;;;;;26.90;95.50;;;;;;5115366;28;19925;-70
2022/07/19 02:52:05;;;;;;;;;;;26.90;95.40;;;;;;5115612;28;19904;-71
2022/07/19 02:54:30;;;;;;;;;;;26.90;95.60;;;;;;5115976;28;19907;-71
2022/07/19 02:56:56;;;;;;;;;;;26.80;95.60;;;;;;5114502;28;20021;-70
2022/07/19 02:59:22;;;;;;;;;;;26.90;95.30;;;;;;5115802;28;19951;-71
2022/07/19 03:01:48;;;;;;;;;;;27.00;94.80;;;;;;5115578;28;20331;-71
2022/07/19 03:04:14;;;;;;;;;;;27.00;94.60;;;;;;5115650;28;19903;-71
2022/07/19 03:06:39;;;;;;;;;;;27.00;94.60;;;;;;5115489;28;19903;-70
2022/07/19 03:09:05;;;;;;;;;;;27.00;94.60;;;;;;5115418;28;19915;-70
2022/07/19 03:11:31;;;;;;;;;;;27.00;94.50;;;;;;5115354;28;19964;-70
2022/07/19 03:13:57;;;;;;;;;;;27.00;94.30;;;;;;5115146;28;19947;-70
2022/07/19 03:16:23;;;;;;;;;;;27.00;94.30;;;;;;5115174;28;19916;-70
2022/07/19 03:18:49;;;;;;;;;;;26.90;94.10;;;;;;5113871;28;20244;-70
2022/07/19 03:21:16;;;;;;;;;;;26.90;93.90;;;;;;5115487;28;19933;-69
2022/07/19 03:23:42;;;;;;;;;;;26.80;93.80;;;;;;5115828;28;19904;-70
2022/07/19 03:26:08;;;;;;;;;;;26.80;93.50;;;;;;5115747;28;19904;-70
2022/07/19 03:28:34;;;;;;;;;;;26.80;93.60;;;;;;5114304;28;19904;-71
2022/07/19 03:31:00;;;;;;;;;;;26.90;93.60;;;;;;5114748;28;19911;-70
2022/07/19 03:33:27;;;;;;;;;;;26.90;93.50;;;;;;5115468;28;19918;-70
2022/07/19 03:35:52;;;;;;;;;;;26.90;93.30;;;;;;5115589;28;20347;-70
2022/07/19 03:38:18;;;;;;;;;;;26.90;93.30;;;;;;5115427;28;19919;-72
2022/07/19 03:40:47;;;;;;;;;;;26.80;93.40;;;;;;5113772;28;19903;-71
2022/07/19 03:43:14;;;;;;;;;;;26.80;93.40;;;;;;5115211;28;20000;-71
2022/07/19 03:45:41;;;;;;;;;;;26.80;93.40;;;;;;5112543;28;19903;-71
2022/07/19 03:48:06;;;;;;;;;;;26.90;93.30;;;;;;5115150;28;19904;-71
2022/07/19 03:50:32;;;;;;;;;;;26.90;93.30;;;;;;5113510;28;20360;-71
2022/07/19 03:52:58;;;;;;;;;;;27.00;93.20;;;;;;5115150;28;19911;-71
2022/07/19 03:55:24;;;;;;;;;;;27.00;93.30;;;;;;5115136;27;20347;-71
2022/07/19 03:57:50;;;;;;;;;;;27.10;93.20;;;;;;5115194;28;19903;-71
2022/07/19 04:00:16;;;;;;;;;;;27.10;93.10;;;;;;5113528;28;19990;-71
2022/07/19 04:02:42;;;;;;;;;;;27.10;93.20;;;;;;5113513;28;20316;-71
2022/07/19 04:05:08;;;;;;;;;;;27.10;93.10;;;;;;5113368;28;19904;-71
2022/07/19 04:07:34;;;;;;;;;;;27.10;93.00;;;;;;5114738;28;19910;-71
2022/07/19 04:10:00;;;;;;;;;;;27.20;93.10;;;;;;5113566;28;19954;-71
2022/07/19 04:12:25;;;;;;;;;;;27.20;93.00;;;;;;5113185;28;19958;-71
2022/07/19 04:14:51;;;;;;;;;;;27.20;92.80;;;;;;5114218;28;19961;-71
2022/07/19 04:17:17;;;;;;;;;;;27.20;92.80;;;;;;5114444;28;19915;-71
2022/07/19 04:19:43;;;;;;;;;;;27.30;92.80;;;;;;5115532;28;19914;-71
2022/07/19 04:22:09;;;;;;;;;;;27.30;92.70;;;;;;5115597;28;20189;-71
2022/07/19 04:24:34;;;;;;;;;;;27.30;92.70;;;;;;5115721;28;19960;-71
2022/07/19 04:27:00;;;;;;;;;;;27.30;92.60;;;;;;5115456;28;20415;-71
2022/07/19 04:29:26;;;;;;;;;;;27.30;92.50;;;;;;5115390;28;19956;-71
2022/07/19 04:31:52;;;;;;;;;;;27.40;92.50;;;;;;5115406;28;19979;-71
2022/07/19 04:34:18;;;;;;;;;;;27.40;92.30;;;;;;5114995;28;19912;-71
2022/07/19 04:36:43;;;;;;;;;;;27.40;92.20;;;;;;5115566;28;20032;-71
2022/07/19 04:39:09;;;;;;;;;;;27.40;92.20;;;;;;5115330;28;19903;-71
2022/07/19 04:41:35;;;;;;;;;;;27.40;92.20;;;;;;5115787;28;19904;-71
2022/07/19 04:44:01;;;;;;;;;;;27.40;92.30;;;;;;5115444;28;19986;-71
2022/07/19 04:46:26;;;;;;;;;;;27.30;92.80;;;;;;5115472;28;19914;-71
2022/07/19 04:48:52;;;;;;;;;;;27.30;92.60;;;;;;5115082;28;19907;-71
2022/07/19 04:51:18;;;;;;;;;;;27.20;92.70;;;;;;5115558;28;19911;-71
2022/07/19 04:53:44;;;;;;;;;;;27.10;92.90;;;;;;5114704;28;20382;-71
2022/07/19 04:56:10;;;;;;;;;;;27.10;92.70;;;;;;5114777;28;19923;-71
2022/07/19 04:58:35;;;;;;;;;;;27.10;92.60;;;;;;5114816;28;19907;-71
2022/07/19 05:01:01;;;;;;;;;;;27.10;92.70;;;;;;5114658;28;20313;-71
2022/07/19 05:03:27;;;;;;;;;;;27.10;92.60;;;;;;5114644;28;19911;-71
2022/07/19 05:05:53;;;;;;;;;;;27.30;92.40;;;;;;5115200;28;19904;-71
2022/07/19 05:08:19;;;;;;;;;;;27.40;92.10;;;;;;5114605;28;19904;-71
2022/07/19 05:10:45;;;;;;;;;;;27.50;91.90;;;;;;5115197;28;19904;-71
2022/07/19 05:13:11;;;;;;;;;;;27.90;91.50;;;;;;5114122;28;20232;-71
2022/07/19 05:15:36;;;;;;;;;;;28.90;90.70;;;;;;5113427;28;19923;-71
2022/07/19 05:18:02;;;;;;;;;;;29.70;89.30;;;;;;5112154;28;20423;-71
2022/07/19 05:20:28;;;;;;;;;;;30.60;87.60;;;;;;5111909;28;19904;-71
2022/07/19 05:22:54;;;;;;;;;;;31.00;85.90;;;;;;5113504;28;19903;-71
2022/07/19 05:25:20;;;;;;;;;;;31.40;85.10;;;;;;5113747;28;19908;-71
2022/07/19 05:27:45;;;;;;;;;;;31.80;83.60;;;;;;5114059;28;19904;-71
2022/07/19 05:30:12;;;;;;;;;;;31.90;82.50;;;;;;5113664;28;20316;-71
2022/07/19 05:32:38;;;;;;;;;;;32.40;81.50;;;;;;5113291;28;20002;-71
2022/07/19 05:35:04;;;;;;;;;;;32.90;80.30;;;;;;5113352;28;19904;-71
2022/07/19 05:37:30;;;;;;;;;;;33.20;79.10;;;;;;5113503;28;19911;-71
2022/07/19 05:39:55;;;;;;;;;;;33.30;78.50;;;;;;5113240;28;19938;-71
2022/07/19 05:42:21;;;;;;;;;;;33.80;77.40;;;;;;5111697;28;20387;-71
2022/07/19 05:44:47;;;;;;;;;;;33.90;76.90;;;;;;5113053;28;19911;-71
2022/07/19 05:47:13;;;;;;;;;;;34.40;75.70;;;;;;5113414;28;19911;-71
2022/07/19 05:49:39;;;;;;;;;;;34.90;74.20;;;;;;5111454;28;19915;-71
2022/07/19 05:52:04;;;;;;;;;;;35.10;73.20;;;;;;5113025;28;19904;-71
2022/07/19 05:54:30;;;;;;;;;;;35.30;72.60;;;;;;5111665;28;19928;-72
2022/07/19 05:56:56;;;;;;;;;;;35.20;72.80;;;;;;5112387;28;20317;-71
2022/07/19 05:59:22;;;;;;;;;;;36.10;71.30;;;;;;5112551;28;19913;-71
2022/07/19 06:01:48;;;;;;;;;;;37.00;69.50;;;;;;5110757;28;20344;-71
2022/07/19 06:04:14;;;;;;;;;;;37.90;67.60;;;;;;5112614;28;19915;-71
2022/07/19 06:06:40;;;;;;;;;;;37.90;66.70;;;;;;5112501;28;19972;-71
2022/07/19 06:09:07;;;;;;;;;;;38.50;65.50;;;;;;5111727;28;20306;-72
2022/07/19 06:11:33;;;;;;;;;;;39.60;64.20;;;;;;5110764;28;19903;-70
2022/07/19 06:14:00;;;;;;;;;;;41.00;62.40;;;;;;5111973;28;19911;-71
2022/07/19 06:16:26;;;;;;;;;;;42.40;59.80;;;;;;5111955;28;19915;-71
2022/07/19 06:18:51;;;;;;;;;;;43.60;57.50;;;;;;5113167;28;19930;-71
2022/07/19 06:21:18;;;;;;;;;;;44.60;55.60;;;;;;5112791;28;19903;-71
2022/07/19 06:23:44;;;;;;;;;;;45.50;53.70;;;;;;5113107;28;19904;-71
2022/07/19 06:26:10;;;;;;;;;;;46.30;52.70;;;;;;5113028;28;19914;-71
2022/07/19 06:28:36;;;;;;;;;;;46.20;52.50;;;;;;5112774;28;19903;-71
2022/07/19 06:31:02;;;;;;;;;;;46.70;52.10;;;;;;5112591;28;19915;-71
2022/07/19 06:33:28;;;;;;;;;;;47.20;51.50;;;;;;5112804;28;19997;-71
2022/07/19 06:35:54;;;;;;;;;;;47.00;51.10;;;;;;5112529;28;19951;-71
2022/07/19 06:38:21;;;;;;;;;;;46.60;50.70;;;;;;5112844;28;19910;-71
2022/07/19 06:40:46;;;;;;;;;;;45.90;50.50;;;;;;5112678;28;19908;-71
2022/07/19 06:43:12;;;;;;;;;;;46.80;50.00;;;;;;5112626;28;20320;-71
2022/07/19 06:45:38;;;;;;;;;;;47.50;48.90;;;;;;5111196;28;19904;-71
2022/07/19 06:48:04;;;;;;;;;;;47.80;47.60;;;;;;5112950;28;19903;-71
2022/07/19 06:50:30;;;;;;;;;;;47.80;47.00;;;;;;5111481;28;19929;-71
2022/07/19 06:52:56;;;;;;;;;;;47.70;46.80;;;;;;5112575;28;19911;-71
2022/07/19 06:55:22;;;;;;;;;;;47.90;46.90;;;;;;5112329;28;20377;-71
2022/07/19 06:57:48;;;;;;;;;;;48.00;46.80;;;;;;5112467;28;20323;-71
2022/07/19 07:00:15;;;;;;;;;;;48.30;47.00;;;;;;5112603;28;19907;-71
2022/07/19 07:02:41;;;;;;;;;;;47.40;47.10;;;;;;5112471;28;19904;-71
2022/07/19 07:05:08;;;;;;;;;;;48.20;47.40;;;;;;5110938;28;19904;-71
2022/07/19 07:07:33;;;;;;;;;;;48.30;46.90;;;;;;5112359;28;19999;-71
2022/07/19 07:10:01;;;;;;;;;;;48.00;46.40;;;;;;5112474;28;19943;-72
2022/07/19 07:12:27;;;;;;;;;;;47.40;47.10;;;;;;5112256;28;19911;-72
2022/07/19 07:14:53;;;;;;;;;;;47.50;47.40;;;;;;5112194;28;19910;-71
2022/07/19 07:17:19;;;;;;;;;;;47.30;47.40;;;;;;5112285;28;20006;-71
2022/07/19 07:19:45;;;;;;;;;;;47.20;47.90;;;;;;5115046;28;20006;-71
2022/07/19 07:22:11;;;;;;;;;;;46.90;48.30;;;;;;5116343;28;19994;-72
2022/07/19 07:24:36;;;;;;;;;;;46.70;48.60;;;;;;5116111;28;19904;-71
2022/07/19 07:27:02;;;;;;;;;;;45.90;49.10;;;;;;5116294;28;19907;-71
2022/07/19 07:29:28;;;;;;;;;;;45.10;50.40;;;;;;5116106;28;19943;-71
2022/07/19 07:31:54;;;;;;;;;;;44.30;50.90;;;;;;5115784;28;19908;-71
2022/07/19 07:34:21;;;;;;;;;;;43.60;52.10;;;;;;5116248;28;20022;-71
2022/07/19 07:36:47;;;;;;;;;;;42.70;52.80;;;;;;5115876;28;19990;-71
2022/07/19 07:39:13;;;;;;;;;;;42.00;54.20;;;;;;5115964;28;20015;-70
2022/07/19 07:41:38;;;;;;;;;;;41.00;55.60;;;;;;5115672;28;19907;-71
2022/07/19 07:44:05;;;;;;;;;;;40.40;57.90;;;;;;5115562;28;19903;-71
2022/07/19 07:46:30;;;;;;;;;;;40.00;58.70;;;;;;5114013;28;19903;-71
2022/07/19 07:48:56;;;;;;;;;;;39.60;59.50;;;;;;5113988;28;20245;-70
2022/07/19 07:51:22;;;;;;;;;;;39.10;59.80;;;;;;5115354;28;19907;-71
2022/07/19 07:53:49;;;;;;;;;;;38.40;60.70;;;;;;5114312;28;19996;-72
2022/07/19 07:56:14;;;;;;;;;;;38.40;62.20;;;;;;5114854;28;19980;-70
2022/07/19 07:58:40;;;;;;;;;;;38.20;62.10;;;;;;5113122;28;19907;-70
2022/07/19 08:01:06;;;;;;;;;;;38.00;61.90;;;;;;5114898;28;19904;-70
2022/07/19 08:03:32;;;;;;;;;;;38.00;62.50;;;;;;5114398;28;19908;-70
2022/07/19 08:05:58;;;;;;;;;;;37.90;62.70;;;;;;5114211;28;19994;-70
2022/07/19 08:08:26;;;;;;;;;;;37.80;62.90;;;;;;5114046;28;19903;-70
2022/07/19 08:10:52;;;;;;;;;;;37.90;61.90;;;;;;5114021;28;19952;-71
2022/07/19 08:13:18;;;;;;;;;;;37.70;61.70;;;;;;5113918;28;19988;-70
2022/07/19 08:15:44;;;;;;;;;;;37.30;61.80;;;;;;5113609;28;20404;-71
2022/07/19 08:18:10;;;;;;;;;;;37.30;63.00;;;;;;5114326;28;19907;-70
2022/07/19 08:20:36;;;;;;;;;;;37.50;63.60;;;;;;5115024;28;20323;-70
2022/07/19 08:23:01;;;;;;;;;;;37.70;62.60;;;;;;5114773;28;19954;-71
2022/07/19 08:25:27;;;;;;;;;;;37.50;63.60;;;;;;5114336;28;20262;-71
2022/07/19 08:27:53;;;;;;;;;;;37.70;63.20;;;;;;5114447;28;19911;-71
2022/07/19 08:30:20;;;;;;;;;;;37.30;62.90;;;;;;5114296;28;20372;-72
2022/07/19 08:32:46;;;;;;;;;;;37.20;63.20;;;;;;5114650;28;20309;-72
2022/07/19 08:35:12;;;;;;;;;;;37.40;62.60;;;;;;5114964;28;19931;-70
2022/07/19 08:37:38;;;;;;;;;;;37.40;59.60;;;;;;5114429;27;19904;-71
2022/07/19 08:40:04;;;;;;;;;;;37.50;60.60;;;;;;5114788;28;19903;-71
2022/07/19 08:42:30;;;;;;;;;;;37.50;59.80;;;;;;5114428;28;19910;-71
2022/07/19 08:44:59;;;;;;;;;;;37.40;61.10;;;;;;5114308;28;19911;-71
2022/07/19 08:47:26;;;;;;;;;;;37.30;62.10;;;;;;5114426;28;19907;-72
2022/07/19 08:49:52;;;;;;;;;;;37.40;62.10;;;;;;5113855;27;19912;-72
2022/07/19 08:52:19;;;;;;;;;;;37.50;60.30;;;;;;5113667;28;19911;-72
2022/07/19 08:54:44;;;;;;;;;;;37.50;60.90;;;;;;5114078;28;19915;-71
2022/07/19 08:59:55;;;;;;;;;;;37.60;62.80;;;;;;5113702;28;19910;-72
2022/07/19 09:02:20;;;;;;;;;;;37.50;58.90;;;;;;5113599;28;19962;-72
2022/07/19 09:05:01;;;;;;;;;;;37.50;58.70;;;;;;5113780;28;19948;-71
2022/07/19 09:07:27;;;;;;;;;;;37.40;58.80;;;;;;5113632;28;19908;-71
2022/07/19 09:10:13;;;;;;;;;;;36.90;63.80;;;;;;5113548;28;19903;-72
2022/07/19 09:12:56;;;;;;;;;;;36.60;64.50;;;;;;5111980;28;19912;-72
2022/07/19 09:15:35;;;;;;;;;;;36.20;66.80;;;;;;5113349;27;20343;-72
2022/07/19 09:18:11;;;;;;;;;;;36.20;64.70;;;;;;5113479;28;20365;-72
2022/07/19 09:20:38;;;;;;;;;;;36.40;63.80;;;;;;5113163;28;19904;-73
2022/07/19 09:23:04;;;;;;;;;;;36.50;63.80;;;;;;5113457;28;20330;-72
2022/07/19 09:25:43;;;;;;;;;;;36.40;64.20;;;;;;5113144;28;19947;-71
2022/07/19 09:28:09;;;;;;;;;;;36.40;64.50;;;;;;5113172;28;19926;-71
2022/07/19 09:30:39;;;;;;;;;;;36.20;62.90;;;;;;5113266;28;20334;-71
2022/07/19 09:33:25;;;;;;;;;;;36.10;66.60;;;;;;5113312;28;20004;-71
2022/07/19 09:35:56;;;;;;;;;;;36.10;67.50;;;;;;5112454;28;19903;-71
2022/07/19 09:38:29;;;;;;;;;;;36.00;66.90;;;;;;5111644;28;19948;-71
2022/07/19 09:41:15;;;;;;;;;;;35.60;68.70;;;;;;5113199;28;19949;-71
2022/07/19 09:43:51;;;;;;;;;;;35.60;70.10;;;;;;5111910;28;20070;-71
2022/07/19 09:46:35;;;;;;;;;;;35.40;69.80;;;;;;5113144;28;19913;-71
2022/07/19 09:49:07;;;;;;;;;;;35.40;68.90;;;;;;5112874;28;19903;-71
2022/07/19 09:51:34;;;;;;;;;;;35.30;67.70;;;;;;5112621;28;19907;-71
2022/07/19 09:54:01;;;;;;;;;;;35.10;67.50;;;;;;5112820;28;19911;-71
2022/07/19 09:56:29;;;;;;;;;;;35.10;66.80;;;;;;5112429;28;19967;-71
2022/07/19 09:58:55;;;;;;;;;;;35.30;66.10;;;;;;5112907;28;19904;-71
2022/07/19 10:01:21;;;;;;;;;;;35.30;66.80;;;;;;5112533;28;20331;-72
2022/07/19 10:03:47;;;;;;;;;;;35.30;67.90;;;;;;5113035;28;19904;-73
2022/07/19 10:06:13;;;;;;;;;;;35.30;64.90;;;;;;5110853;28;19987;-72
2022/07/19 10:08:39;;;;;;;;;;;35.30;65.30;;;;;;5112298;28;19903;-72
2022/07/19 10:11:05;;;;;;;;;;;35.10;68.30;;;;;;5112590;28;20233;-71
2022/07/19 10:13:32;;;;;;;;;;;34.80;68.70;;;;;;5110903;28;19911;-72
2022/07/19 10:15:59;;;;;;;;;;;34.80;68.90;;;;;;5112336;28;20303;-72
2022/07/19 10:18:28;;;;;;;;;;;34.40;70.60;;;;;;5112658;28;19935;-72
2022/07/19 10:20:54;;;;;;;;;;;34.30;70.00;;;;;;5112660;28;19907;-72
2022/07/19 10:23:27;;;;;;;;;;;34.40;69.70;;;;;;5112642;28;20002;-72
2022/07/19 10:25:53;;;;;;;;;;;34.40;68.50;;;;;;5112635;28;19907;-72
2022/07/19 10:28:35;;;;;;;;;;;34.30;70.20;;;;;;5112475;28;19904;-71
2022/07/19 10:31:01;;;;;;;;;;;34.50;68.30;;;;;;5112404;28;19916;-72
2022/07/19 10:33:36;;;;;;;;;;;34.40;67.30;;;;;;5112661;28;19912;-71
2022/07/19 10:36:34;;;;;;;;;;;34.30;69.30;;;;;;5112672;28;19910;-72
2022/07/19 10:39:22;;;;;;;;;;;34.20;71.50;;;;;;5029860;28;20348;-73
2022/07/19 10:42:04;;;;;;;;;;;34.00;69.10;;;;;;5030474;28;19912;-71
2022/07/19 10:44:30;;;;;;;;;;;34.00;69.10;;;;;;5029834;28;20309;-70
2022/07/19 10:46:56;;;;;;;;;;;34.20;68.60;;;;;;5030040;28;19944;-70
2022/07/19 10:49:40;;;;;;;;;;;34.00;68.90;;;;;;5030025;28;19947;-71
2022/07/19 10:52:24;;;;;;;;;;;34.00;68.40;;;;;;5029582;28;20012;-71
2022/07/19 10:55:12;;;;;;;;;;;34.10;69.30;;;;;;5031091;28;20035;-71
2022/07/19 10:57:38;;;;;;;;;;;33.80;69.10;;;;;;5032813;28;19928;-71
2022/07/19 11:00:20;;;;;;;;;;;34.00;71.30;;;;;;5032836;28;19905;-70
2022/07/19 11:02:46;;;;;;;;;;;33.90;73.70;;;;;;5033451;28;19952;-71
2022/07/19 11:05:20;;;;;;;;;;;34.10;69.70;;;;;;5033186;28;20374;-71
2022/07/19 11:07:49;;;;;;;;;;;34.20;71.00;;;;;;5033019;28;19948;-71
2022/07/19 11:10:21;;;;;;;;;;;34.30;70.80;;;;;;5032863;28;19913;-71
2022/07/19 11:12:47;;;;;;;;;;;34.40;72.60;;;;;;5032783;28;19909;-71
2022/07/19 11:15:13;;;;;;;;;;;34.40;72.10;;;;;;5096251;28;20270;-71
2022/07/19 11:17:39;;;;;;;;;;;34.70;73.00;;;;;;5114738;28;19927;-71
2022/07/19 11:20:07;;;;;;;;;;;34.70;72.90;;;;;;5116699;28;19915;-71
2022/07/19 11:22:34;;;;;;;;;;;34.60;74.80;;;;;;5116373;28;20300;-71
2022/07/19 11:24:59;;;;;;;;;;;34.30;77.10;;;;;;5116301;28;19999;-71
2022/07/19 11:27:25;;;;;;;;;;;34.40;77.10;;;;;;5114837;28;19972;-71
2022/07/19 11:29:59;;;;;;;;;;;34.60;75.80;;;;;;5116041;28;19903;-71
2022/07/19 11:32:25;;;;;;;;;;;34.60;76.00;;;;;;5114718;28;19911;-71
2022/07/19 11:34:55;;;;;;;;;;;34.60;76.20;;;;;;5116481;28;20073;-72
2022/07/19 11:37:24;;;;;;;;;;;34.50;77.80;;;;;;5116252;28;19911;-72
2022/07/19 11:39:50;;;;;;;;;;;34.60;75.60;;;;;;5115906;28;19904;-71
2022/07/19 11:42:27;;;;;;;;;;;34.70;78.00;;;;;;5116584;28;19910;-71
2022/07/19 11:44:54;;;;;;;;;;;34.50;78.60;;;;;;5116536;28;20411;-71
2022/07/19 11:47:21;;;;;;;;;;;34.40;79.80;;;;;;5116517;28;20438;-71
2022/07/19 11:49:46;;;;;;;;;;;34.50;78.90;;;;;;5115747;28;19949;-71
2022/07/19 11:52:12;;;;;;;;;;;34.60;79.00;;;;;;5115618;28;19911;-71
2022/07/19 11:54:38;;;;;;;;;;;34.60;78.30;;;;;;5115694;28;20003;-72
2022/07/19 11:57:05;;;;;;;;;;;34.50;79.20;;;;;;5115373;28;19903;-71
2022/07/19 11:59:30;;;;;;;;;;;34.70;79.00;;;;;;5115474;28;19946;-71
2022/07/19 12:01:57;;;;;;;;;;;34.90;77.30;;;;;;5115330;28;19915;-71
2022/07/19 12:04:23;;;;;;;;;;;35.00;76.00;;;;;;5115210;28;20359;-71
2022/07/19 12:06:54;;;;;;;;;;;35.00;76.60;;;;;;5114472;28;20255;-71
2022/07/19 12:09:25;;;;;;;;;;;34.90;79.20;;;;;;5115357;28;19904;-71
2022/07/19 12:11:52;;;;;;;;;;;34.90;75.00;;;;;;5115671;28;19903;-71
2022/07/19 12:14:19;;;;;;;;;;;34.90;74.50;;;;;;5114813;28;19927;-71
2022/07/19 12:16:46;;;;;;;;;;;35.00;73.50;;;;;;5114816;28;19915;-70
2022/07/19 12:19:12;;;;;;;;;;;34.90;74.40;;;;;;5115487;28;19939;-72
2022/07/19 12:21:41;;;;;;;;;;;34.80;75.50;;;;;;5115771;28;20336;-71
2022/07/19 12:24:19;;;;;;;;;;;34.80;77.30;;;;;;5115168;28;20351;-71
2022/07/19 12:27:02;;;;;;;;;;;34.80;74.60;;;;;;5115579;28;20262;-71
2022/07/19 12:29:30;;;;;;;;;;;34.80;74.00;;;;;;5115120;28;20430;-71
2022/07/19 12:32:16;;;;;;;;;;;34.70;75.00;;;;;;5115368;28;20266;-71
2022/07/19 12:34:41;;;;;;;;;;;34.70;75.70;;;;;;5100763;28;19912;-71
2022/07/19 12:37:21;;;;;;;;;;;34.50;77.10;;;;;;5115389;28;19949;-72
2022/07/19 12:39:57;;;;;;;;;;;34.50;76.50;;;;;;5115111;27;19907;-71
2022/07/19 12:42:22;;;;;;;;;;;34.60;75.00;;;;;;5115368;28;20375;-72
2022/07/19 12:44:49;;;;;;;;;;;34.60;70.90;;;;;;5114799;28;19911;-72
2022/07/19 12:47:15;;;;;;;;;;;34.50;75.50;;;;;;5114834;28;19904;-71
2022/07/19 12:49:45;;;;;;;;;;;34.80;71.10;;;;;;5114934;28;19903;-72
2022/07/19 12:52:11;;;;;;;;;;;34.60;72.80;;;;;;5114543;28;19904;-71
2022/07/19 12:54:37;;;;;;;;;;;34.80;74.20;;;;;;5112738;28;19911;-71
2022/07/19 12:57:03;;;;;;;;;;;34.60;70.80;;;;;;5114716;27;20374;-72
2022/07/19 12:59:38;;;;;;;;;;;34.40;69.00;;;;;;5114148;28;19998;-72
2022/07/19 13:02:05;;;;;;;;;;;34.10;71.30;;;;;;5114476;27;20305;-71
2022/07/19 13:04:31;;;;;;;;;;;33.90;73.20;;;;;;5114084;28;19904;-72
2022/07/19 13:06:56;;;;;;;;;;;33.80;73.20;;;;;;5112556;28;19910;-71
2022/07/19 13:09:23;;;;;;;;;;;33.70;74.00;;;;;;5114032;28;19958;-71
2022/07/19 13:11:48;;;;;;;;;;;33.50;74.80;;;;;;5114548;28;19903;-71
2022/07/19 13:14:14;;;;;;;;;;;33.40;76.40;;;;;;5113833;28;19911;-72
2022/07/19 13:16:40;;;;;;;;;;;33.30;76.90;;;;;;5113606;28;19916;-72
2022/07/19 13:19:07;;;;;;;;;;;33.20;75.90;;;;;;5112791;28;19953;-73
2022/07/19 13:21:33;;;;;;;;;;;32.90;76.50;;;;;;5114426;27;19903;-72
2022/07/19 13:23:59;;;;;;;;;;;32.80;75.60;;;;;;5114145;28;19915;-72
2022/07/19 13:26:24;;;;;;;;;;;32.60;73.30;;;;;;5112612;28;19904;-72
2022/07/19 13:28:50;;;;;;;;;;;32.60;70.20;;;;;;5114491;28;19904;-72
2022/07/19 13:31:16;;;;;;;;;;;32.60;73.40;;;;;;5113751;28;19917;-72
2022/07/19 13:33:42;;;;;;;;;;;32.60;73.10;;;;;;5114478;28;19915;-72
2022/07/19 13:36:08;;;;;;;;;;;32.60;74.70;;;;;;5113798;28;19929;-72
2022/07/19 13:38:36;;;;;;;;;;;32.60;75.20;;;;;;5113695;28;19904;-72
2022/07/19 13:41:03;;;;;;;;;;;32.50;75.40;;;;;;5113987;28;19946;-72
2022/07/19 13:43:30;;;;;;;;;;;32.30;77.70;;;;;;5113529;28;19903;-72
2022/07/19 13:45:58;;;;;;;;;;;32.20;78.10;;;;;;5114079;28;19903;-72
2022/07/19 13:48:24;;;;;;;;;;;32.20;79.70;;;;;;5113587;28;19903;-71
2022/07/19 13:50:50;;;;;;;;;;;32.00;81.00;;;;;;5112267;28;20386;-72
2022/07/19 13:53:15;;;;;;;;;;;31.90;81.00;;;;;;5112397;28;19911;-73
2022/07/19 13:55:42;;;;;;;;;;;31.90;82.10;;;;;;5113218;28;20325;-72
2022/07/19 13:58:08;;;;;;;;;;;31.90;82.50;;;;;;5113484;28;19964;-72
2022/07/19 14:00:34;;;;;;;;;;;31.90;83.30;;;;;;5113382;28;19954;-72
2022/07/19 14:03:00;;;;;;;;;;;32.00;83.90;;;;;;5113330;28;20029;-71
2022/07/19 14:05:26;;;;;;;;;;;31.90;84.80;;;;;;5113059;28;19915;-72
2022/07/19 14:07:51;;;;;;;;;;;32.00;85.50;;;;;;5113176;28;19968;-72
2022/07/19 14:10:17;;;;;;;;;;;31.90;87.00;;;;;;5113222;28;19914;-71
2022/07/19 14:12:44;;;;;;;;;;;31.70;87.50;;;;;;5112917;27;19918;-71
2022/07/19 14:15:10;;;;;;;;;;;31.70;87.40;;;;;;5111511;28;20344;-72
2022/07/19 14:17:36;;;;;;;;;;;31.90;88.00;;;;;;5112812;28;20002;-72
2022/07/19 14:20:02;;;;;;;;;;;32.10;87.30;;;;;;5113231;28;20305;-72